Time;durP1;ratioP1;P1;durP2;ratioP2;P2;SDS_P1;SDS_P2;PMS_P1;PMS_P2;Temp;Humidity;BMP_temperature;BMP_pressure;BME280_temperature;BME280_humidity;BME280_pressure;Samples;Min_cycle;Max_cycle;Signal;HPM_P1;HPM_P2
2021/07/27 00:00:53;;;;;;;6.77;2.40;;;;;;;;;;5013304;28;20190;-73
2021/07/27 00:03:56;;;;;;;3.40;2.50;;;;;;;;;;5014178;28;20181;-72
2021/07/27 00:07:01;;;;;;;2.93;2.37;;;;;;;;;;5007509;28;20186;-72
2021/07/27 00:10:07;;;;;;;4.17;2.60;;;;;;;;;;4994415;28;20538;-72
2021/07/27 00:13:11;;;;;;;5.80;2.83;;;;;;;;;;4994334;28;20218;-72
2021/07/27 00:16:15;;;;;;;5.27;3.20;;;;;;;;;;4998378;28;20521;-72
2021/07/27 00:19:19;;;;;;;6.20;3.17;;;;;;;;;;4994354;28;20190;-72
2021/07/27 00:22:23;;;;;;;4.50;3.10;;;;;;;;;;5003878;28;20703;-72
2021/07/27 00:25:27;;;;;;;5.67;3.23;;;;;;;;;;5013491;28;20561;-72
2021/07/27 00:28:32;;;;;;;7.13;3.70;;;;;;;;;;5012666;28;20189;-72
2021/07/27 00:31:36;;;;;;;5.47;3.47;;;;;;;;;;5005662;28;20225;-72
2021/07/27 00:34:40;;;;;;;5.73;3.80;;;;;;;;;;4993291;28;20629;-72
2021/07/27 00:37:47;;;;;;;8.63;3.20;;;;;;;;;;4994825;28;20190;-74
2021/07/27 00:40:51;;;;;;;5.80;3.60;;;;;;;;;;5004460;28;20609;-72
2021/07/27 00:43:55;;;;;;;5.47;3.70;;;;;;;;;;4993982;28;20190;-74
2021/07/27 00:46:59;;;;;;;4.63;3.00;;;;;;;;;;4997008;28;20513;-72
2021/07/27 00:50:07;;;;;;;6.57;3.47;;;;;;;;;;4997982;28;20664;-72
2021/07/27 00:53:11;;;;;;;7.33;3.23;;;;;;;;;;5007967;28;20217;-74
2021/07/27 00:56:15;;;;;;;4.33;3.23;;;;;;;;;;5009519;28;20190;-73
2021/07/27 00:59:19;;;;;;;4.70;3.23;;;;;;;;;;5007395;28;20189;-72
2021/07/27 01:02:24;;;;;;;3.67;3.00;;;;;;;;;;5011423;28;20213;-73
2021/07/27 01:05:29;;;;;;;5.00;3.10;;;;;;;;;;5011696;28;20304;-72
2021/07/27 01:08:34;;;;;;;5.37;3.27;;;;;;;;;;5014538;28;20209;-73
2021/07/27 01:11:42;;;;;;;5.10;3.30;;;;;;;;;;5011424;28;20225;-72
2021/07/27 01:14:46;;;;;;;4.20;3.30;;;;;;;;;;5016994;28;20182;-72
2021/07/27 01:17:58;;;;;;;5.00;3.30;;;;;;;;;;5017175;28;20197;-73
2021/07/27 01:37:58;;;;;;;3.50;2.67;;;;;;;;;;5005059;28;20194;-72
2021/07/27 01:42:03;;;;;;;7.30;3.43;;;;;;;;;;4998370;28;20190;-73
2021/07/27 01:44:26;;;;;;;4.30;3.37;;;;;;;;;;4997041;28;20669;-72
2021/07/27 01:47:30;;;;;;;6.53;3.10;;;;;;;;;;5005210;28;20173;-72
2021/07/27 01:50:34;;;;;;;4.00;3.13;;;;;;;;;;5016102;28;20189;-72
2021/07/27 01:53:47;;;;;;;7.13;3.40;;;;;;;;;;4998267;28;20214;-73
2021/07/27 01:56:51;;;;;;;4.60;3.20;;;;;;;;;;4997105;28;20190;-72
2021/07/27 02:00:01;;;;;;;6.57;2.97;;;;;;;;;;5014458;28;20193;-72
2021/07/27 02:03:06;;;;;;;9.27;3.33;;;;;;;;;;5015515;28;20221;-72
2021/07/27 02:06:10;;;;;;;4.60;3.20;;;;;;;;;;5015315;28;20209;-72
2021/07/27 02:09:15;;;;;;;5.57;3.30;;;;;;;;;;4996594;28;20680;-72
2021/07/27 02:12:22;;;;;;;4.63;3.27;;;;;;;;;;5002249;28;20213;-72
2021/07/27 02:15:40;;;;;;;3.53;3.00;;;;;;;;;;4999268;28;20198;-72
2021/07/27 02:18:44;;;;;;;4.40;2.77;;;;;;;;;;5003358;28;20194;-72
2021/07/27 02:21:48;;;;;;;3.37;3.07;;;;;;;;;;5001356;28;20226;-73
2021/07/27 02:24:52;;;;;;;6.27;3.50;;;;;;;;;;4996384;28;20193;-73
2021/07/27 02:27:57;;;;;;;6.03;3.23;;;;;;;;;;4995738;28;20194;-74
2021/07/27 02:31:05;;;;;;;3.90;3.10;;;;;;;;;;4996126;28;20186;-72
2021/07/27 02:34:09;;;;;;;4.53;3.50;;;;;;;;;;5013164;28;20206;-72
2021/07/27 02:37:14;;;;;;;5.90;3.57;;;;;;;;;;5014198;28;20636;-74
2021/07/27 02:40:18;;;;;;;5.97;3.07;;;;;;;;;;5015480;28;20201;-72
2021/07/27 02:43:22;;;;;;;5.13;3.17;;;;;;;;;;5015245;28;20696;-72
2021/07/27 02:46:27;;;;;;;3.73;3.33;;;;;;;;;;5014869;28;20213;-74
2021/07/27 02:49:31;;;;;;;5.77;3.87;;;;;;;;;;4999947;28;20198;-72
2021/07/27 02:52:36;;;;;;;5.57;3.13;;;;;;;;;;5015145;28;20217;-72
2021/07/27 02:55:41;;;;;;;9.83;3.20;;;;;;;;;;5001710;28;20186;-72
2021/07/27 02:58:46;;;;;;;8.27;3.60;;;;;;;;;;5003822;28;20202;-74
2021/07/27 03:01:49;;;;;;;3.87;3.30;;;;;;;;;;5004814;28;20225;-72
2021/07/27 03:04:54;;;;;;;5.83;3.30;;;;;;;;;;4995148;28;20178;-72
2021/07/27 03:07:59;;;;;;;3.10;2.73;;;;;;;;;;4995583;28;20198;-72
2021/07/27 03:11:06;;;;;;;4.93;3.27;;;;;;;;;;5006469;28;20182;-72
2021/07/27 03:14:10;;;;;;;10.77;3.53;;;;;;;;;;4998614;28;20182;-72
2021/07/27 03:17:14;;;;;;;3.40;3.10;;;;;;;;;;5022243;28;20185;-72
2021/07/27 03:20:18;;;;;;;7.40;3.33;;;;;;;;;;5024556;28;20193;-74
2021/07/27 03:23:25;;;;;;;4.63;2.73;;;;;;;;;;5014507;28;20217;-72
2021/07/27 03:26:29;;;;;;;4.57;3.00;;;;;;;;;;5006125;28;20202;-72
2021/07/27 03:29:33;;;;;;;6.47;3.13;;;;;;;;;;5009552;28;20190;-72
2021/07/27 03:32:37;;;;;;;4.27;3.10;;;;;;;;;;4995442;28;20213;-72
2021/07/27 03:35:42;;;;;;;5.60;3.63;;;;;;;;;;4995070;28;20514;-73
2021/07/27 03:38:46;;;;;;;3.73;3.27;;;;;;;;;;4999862;28;20541;-72
2021/07/27 03:41:51;;;;;;;5.90;3.30;;;;;;;;;;5014439;28;20221;-73
2021/07/27 03:44:56;;;;;;;5.13;3.00;;;;;;;;;;5014349;28;20197;-72
2021/07/27 03:48:01;;;;;;;3.80;3.40;;;;;;;;;;5002332;28;20644;-72
2021/07/27 03:51:05;;;;;;;6.80;3.33;;;;;;;;;;5013090;28;20194;-72
2021/07/27 03:54:09;;;;;;;5.93;2.77;;;;;;;;;;5004482;28;20194;-73
2021/07/27 03:57:13;;;;;;;3.63;3.30;;;;;;;;;;4995999;28;20182;-72
2021/07/27 04:00:17;;;;;;;3.40;3.00;;;;;;;;;;4995131;28;20182;-74
2021/07/27 04:03:21;;;;;;;4.20;3.17;;;;;;;;;;4994480;28;20692;-72
2021/07/27 04:06:25;;;;;;;7.10;2.83;;;;;;;;;;4994674;28;20210;-75
2021/07/27 04:09:30;;;;;;;3.03;2.70;;;;;;;;;;5019623;22;20245;-73
2021/07/27 04:12:35;;;;;;;3.97;2.83;;;;;;;;;;5012127;28;20221;-73
2021/07/27 04:15:40;;;;;;;4.47;3.03;;;;;;;;;;5010465;28;20652;-73
2021/07/27 04:18:49;;;;;;;6.77;3.27;;;;;;;;;;4995047;28;20201;-73
2021/07/27 04:21:53;;;;;;;6.37;2.90;;;;;;;;;;4994677;28;20221;-73
2021/07/27 04:24:57;;;;;;;3.30;3.00;;;;;;;;;;4990569;28;20276;-72
2021/07/27 04:28:01;;;;;;;8.70;3.30;;;;;;;;;;4988456;28;20193;-73
2021/07/27 04:31:05;;;;;;;4.93;3.57;;;;;;;;;;4995304;28;20186;-73
2021/07/27 04:34:09;;;;;;;7.20;3.33;;;;;;;;;;4978885;28;20183;-73
2021/07/27 04:37:14;;;;;;;5.07;3.43;;;;;;;;;;4994740;28;20190;-73
2021/07/27 04:40:19;;;;;;;6.07;3.03;;;;;;;;;;4975449;28;20191;-73
2021/07/27 04:43:28;;;;;;;5.10;3.10;;;;;;;;;;4991745;28;20221;-72
2021/07/27 04:46:35;;;;;;;3.20;2.90;;;;;;;;;;4994122;28;20218;-73
2021/07/27 04:49:39;;;;;;;4.77;3.17;;;;;;;;;;4994333;28;20202;-73
2021/07/27 04:52:49;;;;;;;5.77;3.17;;;;;;;;;;5000004;28;20213;-73
2021/07/27 04:55:59;;;;;;;5.50;2.83;;;;;;;;;;4984699;28;20190;-73
2021/07/27 04:59:03;;;;;;;5.97;3.23;;;;;;;;;;4974499;28;20175;-72
2021/07/27 05:02:07;;;;;;;6.93;2.90;;;;;;;;;;4990622;28;20720;-73
2021/07/27 05:05:11;;;;;;;3.43;3.00;;;;;;;;;;5005031;28;20510;-73
2021/07/27 05:08:16;;;;;;;4.90;3.00;;;;;;;;;;4995927;28;20661;-73
2021/07/27 05:11:20;;;;;;;5.17;3.30;;;;;;;;;;4994157;28;20213;-73
2021/07/27 05:14:25;;;;;;;5.00;3.13;;;;;;;;;;4994346;28;20182;-73
2021/07/27 05:17:29;;;;;;;3.90;3.17;;;;;;;;;;4994695;28;20186;-73
2021/07/27 05:20:33;;;;;;;3.60;3.00;;;;;;;;;;4996113;28;20198;-73
2021/07/27 05:23:37;;;;;;;8.53;3.53;;;;;;;;;;5007357;28;20229;-73
2021/07/27 05:26:41;;;;;;;6.00;3.70;;;;;;;;;;4994976;28;20214;-73
2021/07/27 05:29:49;;;;;;;3.73;3.30;;;;;;;;;;4994186;28;20210;-72
2021/07/27 05:32:55;;;;;;;4.10;2.83;;;;;;;;;;4995714;28;20214;-73
2021/07/27 05:35:59;;;;;;;6.10;3.00;;;;;;;;;;5004534;28;20194;-73
2021/07/27 05:39:03;;;;;;;6.57;3.30;;;;;;;;;;5013106;28;20189;-73
2021/07/27 05:42:08;;;;;;;5.10;3.30;;;;;;;;;;5014241;28;20229;-73
2021/07/27 05:45:12;;;;;;;7.87;2.90;;;;;;;;;;5014546;28;20181;-73
2021/07/27 05:48:16;;;;;;;6.87;3.87;;;;;;;;;;5013821;28;20173;-73
2021/07/27 05:51:21;;;;;;;6.87;3.30;;;;;;;;;;4986044;28;20208;-72
2021/07/27 05:54:25;;;;;;;3.30;3.00;;;;;;;;;;5010954;28;20198;-73
2021/07/27 05:57:29;;;;;;;6.50;4.00;;;;;;;;;;4996548;28;20197;-73
2021/07/27 06:00:35;;;;;;;10.47;3.20;;;;;;;;;;4996651;28;20201;-73
2021/07/27 06:03:39;;;;;;;6.03;4.00;;;;;;;;;;5017252;23;20232;-73
2021/07/27 06:06:43;;;;;;;7.40;3.37;;;;;;;;;;5015928;28;20209;-73
2021/07/27 06:09:47;;;;;;;7.53;4.37;;;;;;;;;;5000266;28;20198;-73
2021/07/27 06:12:51;;;;;;;5.53;3.90;;;;;;;;;;4996435;28;20218;-73
2021/07/27 06:15:56;;;;;;;9.10;3.90;;;;;;;;;;5006478;28;20193;-73
2021/07/27 06:19:00;;;;;;;11.97;4.63;;;;;;;;;;5016902;28;20517;-73
2021/07/27 06:22:04;;;;;;;8.53;4.63;;;;;;;;;;5014325;28;20221;-73
2021/07/27 06:25:12;;;;;;;9.37;4.77;;;;;;;;;;4996838;28;20194;-73
2021/07/27 06:28:16;;;;;;;6.07;4.77;;;;;;;;;;4984535;28;20230;-73
2021/07/27 06:31:20;;;;;;;9.03;4.70;;;;;;;;;;5012110;28;20193;-73
2021/07/27 06:34:24;;;;;;;8.03;4.93;;;;;;;;;;5015449;28;20189;-73
2021/07/27 06:37:28;;;;;;;5.37;4.87;;;;;;;;;;5005312;28;20201;-72
2021/07/27 06:40:32;;;;;;;5.30;4.63;;;;;;;;;;5021126;28;20197;-73
2021/07/27 06:43:38;;;;;;;6.10;4.17;;;;;;;;;;5003850;28;20213;-73
2021/07/27 06:46:42;;;;;;;6.00;5.27;;;;;;;;;;5010580;28;20210;-73
2021/07/27 06:49:46;;;;;;;5.27;4.77;;;;;;;;;;5010973;28;20212;-73
2021/07/27 06:52:51;;;;;;;4.93;4.40;;;;;;;;;;5015521;28;20216;-73
2021/07/27 06:55:55;;;;;;;6.10;5.50;;;;;;;;;;5036552;28;20624;-73
2021/07/27 06:59:02;;;;;;;10.00;5.30;;;;;;;;;;5036113;28;20181;-73
2021/07/27 07:02:06;;;;;;;7.93;5.20;;;;;;;;;;5017146;28;20229;-74
2021/07/27 07:05:10;;;;;;;8.30;5.07;;;;;;;;;;5004471;28;20197;-72
2021/07/27 07:08:14;;;;;;;6.20;4.33;;;;;;;;;;5011426;28;20210;-73
2021/07/27 07:11:19;;;;;;;9.57;4.80;;;;;;;;;;5006423;28;20522;-73
2021/07/27 07:14:22;;;;;;;8.27;4.93;;;;;;;;;;5013566;28;20197;-73
2021/07/27 07:17:26;;;;;;;5.43;4.90;;;;;;;;;;5008175;28;20522;-72
2021/07/27 07:20:30;;;;;;;8.93;5.30;;;;;;;;;;4995974;28;20190;-73
2021/07/27 07:23:35;;;;;;;7.07;5.37;;;;;;;;;;4996073;28;20217;-73
2021/07/27 07:26:39;;;;;;;8.30;5.47;;;;;;;;;;5007005;28;20221;-73
2021/07/27 07:29:43;;;;;;;6.77;5.07;;;;;;;;;;5014857;28;20189;-73
2021/07/27 07:32:47;;;;;;;6.33;5.23;;;;;;;;;;5014996;28;20217;-73
2021/07/27 07:35:51;;;;;;;10.87;5.50;;;;;;;;;;5001268;28;20190;-73
2021/07/27 07:38:56;;;;;;;7.37;5.10;;;;;;;;;;5005440;28;20652;-73
2021/07/27 07:42:01;;;;;;;9.10;5.07;;;;;;;;;;5014813;28;20220;-73
2021/07/27 07:45:06;;;;;;;7.07;5.03;;;;;;;;;;5005262;28;20198;-73
2021/07/27 07:48:10;;;;;;;5.17;4.13;;;;;;;;;;5008315;28;20221;-73
2021/07/27 07:51:14;;;;;;;6.40;4.37;;;;;;;;;;5004684;28;20202;-73
2021/07/27 07:54:19;;;;;;;7.30;4.57;;;;;;;;;;4995048;28;20178;-73
2021/07/27 07:57:23;;;;;;;11.70;5.20;;;;;;;;;;5012687;28;20189;-73
2021/07/27 08:00:27;;;;;;;7.07;4.63;;;;;;;;;;5012721;28;20190;-73
2021/07/27 08:03:32;;;;;;;6.77;4.17;;;;;;;;;;5015612;28;20718;-73
2021/07/27 08:06:36;;;;;;;7.67;4.50;;;;;;;;;;5022943;28;20195;-72
2021/07/27 08:09:40;;;;;;;6.47;4.30;;;;;;;;;;5000012;28;20194;-73
2021/07/27 08:12:46;;;;;;;4.23;3.77;;;;;;;;;;5033178;28;20722;-73
2021/07/27 08:15:50;;;;;;;7.73;4.20;;;;;;;;;;5023025;28;20203;-73
2021/07/27 08:18:54;;;;;;;8.67;4.43;;;;;;;;;;5006835;28;20656;-73
2021/07/27 08:22:00;;;;;;;5.35;3.75;;;;;;;;;;5004568;28;20224;-73
2021/07/27 08:25:06;;;;;;;6.88;3.60;;;;;;;;;;4997624;28;20189;-73
2021/07/27 08:28:10;;;;;;;9.68;3.67;;;;;;;;;;4995886;28;20695;-73
2021/07/27 08:31:15;;;;;;;7.47;3.38;;;;;;;;;;5013088;28;20194;-73
2021/07/27 08:34:19;;;;;;;7.65;3.63;;;;;;;;;;5007271;28;20201;-72
2021/07/27 08:37:23;;;;;;;5.40;3.58;;;;;;;;;;5017783;28;20187;-73
2021/07/27 08:40:34;;;;;;;4.43;3.50;;;;;;;;;;5029495;28;20293;-73
2021/07/27 08:43:38;;;;;;;4.45;3.55;;;;;;;;;;5013953;28;20219;-72
2021/07/27 08:46:45;;;;;;;5.40;3.10;;;;;;;;;;5013671;28;20187;-73
2021/07/27 08:49:49;;;;;;;7.03;3.55;;;;;;;;;;5013024;28;20198;-72
2021/07/27 08:52:53;;;;;;;4.40;3.42;;;;;;;;;;5019417;28;20219;-72
2021/07/27 08:55:59;;;;;;;4.13;2.90;;;;;;;;;;5033588;28;20173;-73
2021/07/27 08:59:03;;;;;;;5.03;3.10;;;;;;;;;;5032666;28;20567;-72
2021/07/27 09:02:08;;;;;;;4.60;3.40;;;;;;;;;;5033243;28;20683;-73
2021/07/27 09:05:13;;;;;;;6.55;3.58;;;;;;;;;;5032399;28;20544;-73
2021/07/27 09:08:17;;;;;;;4.65;3.20;;;;;;;;;;5033470;28;20208;-73
2021/07/27 09:11:21;;;;;;;3.92;3.03;;;;;;;;;;5033175;28;20184;-72
2021/07/27 09:14:26;;;;;;;4.57;3.20;;;;;;;;;;5033363;28;20525;-73
2021/07/27 09:17:30;;;;;;;5.50;3.50;;;;;;;;;;5033456;28;20185;-73
2021/07/27 09:20:36;;;;;;;7.15;3.45;;;;;;;;;;5033089;28;20193;-73
2021/07/27 09:23:43;;;;;;;5.82;3.50;;;;;;;;;;5005638;28;20234;-72
2021/07/27 09:27:12;;;;;;;7.97;3.70;;;;;;;;;;5006671;28;20198;-73
2021/07/27 09:30:22;;;;;;;6.80;3.60;;;;;;;;;;4997437;28;20194;-73
2021/07/27 09:33:35;;;;;;;3.60;3.25;;;;;;;;;;5003556;28;20226;-72
2021/07/27 09:36:40;;;;;;;6.70;3.67;;;;;;;;;;4997696;28;20198;-73
2021/07/27 09:39:44;;;;;;;4.32;3.47;;;;;;;;;;4997824;28;20194;-73
2021/07/27 09:42:48;;;;;;;3.97;3.25;;;;;;;;;;5008966;28;20221;-72
2021/07/27 09:45:55;;;;;;;3.25;2.95;;;;;;;;;;5001265;28;20210;-73
2021/07/27 09:49:00;;;;;;;6.15;3.53;;;;;;;;;;4996972;28;20206;-73
2021/07/27 09:52:05;;;;;;;3.63;2.95;;;;;;;;;;4997075;28;20222;-72
2021/07/27 09:55:10;;;;;;;3.70;3.30;;;;;;;;;;4996858;28;20179;-72
2021/07/27 09:58:15;;;;;;;4.15;3.58;;;;;;;;;;5015025;28;20182;-73
2021/07/27 10:01:28;;;;;;;6.80;3.80;;;;;;;;;;5003601;28;20190;-72
2021/07/27 10:04:46;;;;;;;7.50;3.45;;;;;;;;;;5014150;28;20656;-73
2021/07/27 10:07:57;;;;;;;3.65;3.30;;;;;;;;;;5015917;28;20218;-73
2021/07/27 10:11:11;;;;;;;4.72;3.53;;;;;;;;;;5016584;23;20226;-88
2021/07/27 10:19:51;;;;;;;3.15;2.88;;;;;;;;;;4976712;28;20583;-87
2021/07/27 10:23:00;;;;;;;7.07;3.30;;;;;;;;;;4958537;28;20188;-88
2021/07/27 10:31:49;;;;;;;5.72;3.50;;;;;;;;;;5020674;22;20571;-73
2021/07/27 10:34:54;;;;;;;3.70;2.88;;;;;;;;;;5019766;28;20553;-73
2021/07/27 10:38:13;;;;;;;5.72;3.10;;;;;;;;;;5049060;28;20180;-74
2021/07/27 10:41:19;;;;;;;3.20;2.90;;;;;;;;;;5020528;28;20197;-73
2021/07/27 10:44:38;;;;;;;3.42;3.08;;;;;;;;;;5020627;28;20200;-73
2021/07/27 10:47:49;;;;;;;6.85;3.40;;;;;;;;;;4999797;28;20672;-73
2021/07/27 10:50:55;;;;;;;6.78;3.35;;;;;;;;;;5035286;28;20213;-73
2021/07/27 10:54:01;;;;;;;4.55;3.20;;;;;;;;;;5015578;28;20727;-73
2021/07/27 10:57:06;;;;;;;7.53;3.42;;;;;;;;;;5033460;28;20200;-73
2021/07/27 11:00:10;;;;;;;4.55;3.30;;;;;;;;;;5011762;28;20189;-73
2021/07/27 11:03:25;;;;;;;3.90;3.53;;;;;;;;;;5036826;28;20220;-73
2021/07/27 11:06:29;;;;;;;7.95;3.85;;;;;;;;;;5021889;28;20643;-72
2021/07/27 11:09:33;;;;;;;3.63;3.20;;;;;;;;;;5043796;28;20196;-73
2021/07/27 11:12:39;;;;;;;3.80;3.50;;;;;;;;;;5003228;28;20225;-73
2021/07/27 11:15:43;;;;;;;4.57;3.50;;;;;;;;;;5015669;28;20185;-73
2021/07/27 11:18:47;;;;;;;4.43;3.40;;;;;;;;;;5015378;28;20190;-73
2021/07/27 11:21:52;;;;;;;3.92;3.53;;;;;;;;;;5015251;28;20221;-74
2021/07/27 11:24:57;;;;;;;3.35;2.90;;;;;;;;;;5015263;28;20182;-73
2021/07/27 11:28:14;;;;;;;5.60;3.15;;;;;;;;;;4997518;28;20561;-73
2021/07/27 11:31:20;;;;;;;4.63;3.22;;;;;;;;;;5014897;28;20210;-73
2021/07/27 11:34:33;;;;;;;7.55;3.33;;;;;;;;;;5015405;28;20178;-73
2021/07/27 11:37:37;;;;;;;5.22;3.25;;;;;;;;;;5015360;28;20197;-74
2021/07/27 11:40:43;;;;;;;7.63;3.40;;;;;;;;;;5015748;28;20182;-73
2021/07/27 11:43:49;;;;;;;3.85;3.03;;;;;;;;;;5015428;28;20182;-74
2021/07/27 11:46:54;;;;;;;5.47;2.88;;;;;;;;;;5003056;28;20178;-73
2021/07/27 11:49:59;;;;;;;2.97;2.67;;;;;;;;;;5002727;28;20201;-74
2021/07/27 11:53:06;;;;;;;3.33;2.83;;;;;;;;;;5014277;28;20228;-73
2021/07/27 11:56:15;;;;;;;5.50;3.05;;;;;;;;;;5014641;28;20182;-74
2021/07/27 11:59:27;;;;;;;3.80;3.17;;;;;;;;;;5014636;28;20174;-73
2021/07/27 12:02:31;;;;;;;5.15;3.40;;;;;;;;;;5002573;28;20218;-73
2021/07/27 12:05:38;;;;;;;5.47;3.20;;;;;;;;;;5014541;28;20181;-73
2021/07/27 12:08:42;;;;;;;3.00;2.70;;;;;;;;;;5014349;28;20198;-73
2021/07/27 12:11:46;;;;;;;3.30;2.63;;;;;;;;;;5014350;28;20221;-73
2021/07/27 12:14:50;;;;;;;3.60;3.20;;;;;;;;;;5002200;28;20205;-73
2021/07/27 12:17:55;;;;;;;5.20;3.22;;;;;;;;;;5014357;28;20202;-73
2021/07/27 12:20:59;;;;;;;5.85;3.10;;;;;;;;;;5002700;28;20201;-73
2021/07/27 12:24:04;;;;;;;5.80;2.92;;;;;;;;;;5014835;28;20181;-73
2021/07/27 12:27:09;;;;;;;7.60;3.00;;;;;;;;;;5014251;28;20182;-74
2021/07/27 12:30:13;;;;;;;6.28;2.83;;;;;;;;;;5014036;28;20193;-73
2021/07/27 12:33:17;;;;;;;3.85;3.00;;;;;;;;;;5001991;28;20218;-73
2021/07/27 12:36:22;;;;;;;3.20;2.90;;;;;;;;;;5013986;28;20186;-73
2021/07/27 12:39:26;;;;;;;3.33;2.78;;;;;;;;;;5001926;28;20628;-73
2021/07/27 12:42:30;;;;;;;5.03;2.85;;;;;;;;;;5014099;28;20217;-73
2021/07/27 12:45:34;;;;;;;3.60;2.60;;;;;;;;;;5014311;28;20516;-73
2021/07/27 12:48:38;;;;;;;5.63;3.22;;;;;;;;;;5014013;28;20201;-74
2021/07/27 12:51:44;;;;;;;4.45;3.03;;;;;;;;;;5014349;28;20214;-74
2021/07/27 12:54:48;;;;;;;2.70;2.50;;;;;;;;;;5014024;28;20633;-73
2021/07/27 12:57:52;;;;;;;4.85;2.78;;;;;;;;;;4990508;28;20201;-74
2021/07/27 13:00:56;;;;;;;5.78;2.75;;;;;;;;;;5013683;28;20190;-73
2021/07/27 13:04:01;;;;;;;4.50;2.70;;;;;;;;;;5004581;28;20185;-74
2021/07/27 13:07:06;;;;;;;5.22;3.00;;;;;;;;;;5018019;28;20182;-73
2021/07/27 13:10:12;;;;;;;8.88;3.08;;;;;;;;;;5017895;28;20205;-73
2021/07/27 13:13:17;;;;;;;3.28;2.63;;;;;;;;;;5017582;28;20909;-73
2021/07/27 13:16:21;;;;;;;8.07;4.60;;;;;;;;;;5017709;28;20625;-73
2021/07/27 13:19:25;;;;;;;3.83;2.67;;;;;;;;;;5017813;28;20625;-73
2021/07/27 13:22:29;;;;;;;3.33;2.95;;;;;;;;;;5017301;28;20217;-73
2021/07/27 13:25:33;;;;;;;4.50;3.20;;;;;;;;;;5017773;28;20186;-74
2021/07/27 13:28:37;;;;;;;3.50;2.80;;;;;;;;;;5017382;28;20206;-73
2021/07/27 13:31:41;;;;;;;3.10;2.80;;;;;;;;;;5004881;28;20719;-74
2021/07/27 13:34:45;;;;;;;3.60;2.95;;;;;;;;;;5005134;28;20190;-74
2021/07/27 13:37:49;;;;;;;5.28;3.20;;;;;;;;;;5005106;28;20537;-73
2021/07/27 13:40:54;;;;;;;4.30;2.72;;;;;;;;;;5017421;28;20178;-74
2021/07/27 13:43:57;;;;;;;3.95;2.47;;;;;;;;;;5017051;28;20189;-73
2021/07/27 13:47:02;;;;;;;5.18;3.00;;;;;;;;;;5017217;28;20180;-73
2021/07/27 13:50:07;;;;;;;4.32;2.80;;;;;;;;;;5016940;28;20541;-73
2021/07/27 13:53:11;;;;;;;3.83;3.10;;;;;;;;;;5004717;28;20221;-73
2021/07/27 13:56:15;;;;;;;3.83;2.70;;;;;;;;;;5004707;28;20197;-73
2021/07/27 13:59:19;;;;;;;4.78;3.13;;;;;;;;;;5016679;28;20193;-74
2021/07/27 14:02:23;;;;;;;5.10;2.75;;;;;;;;;;5016888;28;20217;-73
2021/07/27 14:05:27;;;;;;;3.00;2.70;;;;;;;;;;5016815;28;20186;-74
2021/07/27 14:08:31;;;;;;;3.78;2.83;;;;;;;;;;5004399;28;20225;-73
2021/07/27 14:11:36;;;;;;;3.33;2.92;;;;;;;;;;5004361;28;20672;-73
2021/07/27 14:14:41;;;;;;;6.05;3.30;;;;;;;;;;5029115;28;20208;-73
2021/07/27 14:17:45;;;;;;;3.58;2.67;;;;;;;;;;5045786;28;20205;-72
2021/07/27 14:20:49;;;;;;;3.50;2.90;;;;;;;;;;5035811;28;20189;-73
2021/07/27 14:23:53;;;;;;;6.72;2.85;;;;;;;;;;5054526;28;20185;-73
2021/07/27 14:26:59;;;;;;;4.97;3.00;;;;;;;;;;5016013;28;20186;-73
2021/07/27 14:30:05;;;;;;;5.68;2.90;;;;;;;;;;5015587;28;20221;-74
2021/07/27 14:33:10;;;;;;;3.78;2.70;;;;;;;;;;5032054;28;20216;-74
2021/07/27 14:36:14;;;;;;;3.10;2.70;;;;;;;;;;5036799;28;20193;-73
2021/07/27 14:39:18;;;;;;;4.43;2.65;;;;;;;;;;5046225;28;20647;-73
2021/07/27 14:42:23;;;;;;;3.65;2.88;;;;;;;;;;5023781;28;20217;-73
2021/07/27 14:45:26;;;;;;;2.70;2.50;;;;;;;;;;5042437;28;20659;-73
2021/07/27 14:48:30;;;;;;;6.28;2.97;;;;;;;;;;5048557;28;20196;-73
2021/07/27 14:51:34;;;;;;;3.75;2.53;;;;;;;;;;5043406;28;20184;-74
2021/07/27 14:54:38;;;;;;;2.92;2.53;;;;;;;;;;5003555;28;20644;-73
2021/07/27 14:57:43;;;;;;;3.88;2.65;;;;;;;;;;5015507;28;20194;-73
2021/07/27 15:00:46;;;;;;;10.13;3.90;;;;;;;;;;5004185;28;20174;-73
2021/07/27 15:03:50;;;;;;;3.40;2.45;;;;;;;;;;5044948;28;20188;-74
2021/07/27 15:06:55;;;;;;;3.10;2.67;;;;;;;;;;5035396;28;20185;-74
2021/07/27 15:09:59;;;;;;;3.88;2.60;;;;;;;;;;5003002;28;20210;-74
2021/07/27 15:13:03;;;;;;;3.92;3.00;;;;;;;;;;5037224;28;20224;-74
2021/07/27 15:16:07;;;;;;;3.65;3.10;;;;;;;;;;5040585;28;20189;-74
2021/07/27 15:19:13;;;;;;;2.80;2.60;;;;;;;;;;5051410;28;20189;-74
2021/07/27 15:22:17;;;;;;;4.60;2.78;;;;;;;;;;5034637;28;20560;-74
2021/07/27 15:25:21;;;;;;;3.22;2.78;;;;;;;;;;5040172;28;20530;-73
2021/07/27 15:28:25;;;;;;;4.53;2.80;;;;;;;;;;5028398;28;20192;-74
2021/07/27 15:31:30;;;;;;;3.53;2.85;;;;;;;;;;5051060;28;20204;-74
2021/07/27 15:34:34;;;;;;;3.42;2.75;;;;;;;;;;5031990;28;20189;-74
2021/07/27 15:37:39;;;;;;;3.05;2.75;;;;;;;;;;5031719;28;20185;-74
2021/07/27 15:40:43;;;;;;;3.22;2.67;;;;;;;;;;5050462;28;20197;-74
2021/07/27 15:43:48;;;;;;;3.97;3.13;;;;;;;;;;5035208;28;20193;-74
2021/07/27 15:46:52;;;;;;;2.72;2.42;;;;;;;;;;5007465;28;20174;-74
2021/07/27 15:49:56;;;;;;;3.15;2.65;;;;;;;;;;5030813;28;20212;-74
2021/07/27 15:53:01;;;;;;;3.05;2.85;;;;;;;;;;5035901;28;20705;-74
2021/07/27 15:56:05;;;;;;;5.50;3.13;;;;;;;;;;5038530;28;20184;-74
2021/07/27 15:59:10;;;;;;;4.22;2.83;;;;;;;;;;5037452;28;20197;-74
2021/07/27 16:02:15;;;;;;;3.42;2.97;;;;;;;;;;5045977;28;20232;-75
2021/07/27 16:05:19;;;;;;;4.38;2.78;;;;;;;;;;5019856;28;20192;-74
2021/07/27 16:08:23;;;;;;;3.63;2.67;;;;;;;;;;5018188;28;20189;-74
2021/07/27 16:11:27;;;;;;;4.05;3.08;;;;;;;;;;5030212;28;20204;-74
2021/07/27 16:14:32;;;;;;;4.07;2.92;;;;;;;;;;5001698;28;20209;-74
2021/07/27 16:17:40;;;;;;;3.65;3.10;;;;;;;;;;5068574;22;20234;-75
2021/07/27 16:20:44;;;;;;;3.10;2.75;;;;;;;;;;5061435;28;20186;-75
2021/07/27 16:23:48;;;;;;;4.10;3.17;;;;;;;;;;5053962;28;20186;-75
2021/07/27 16:26:52;;;;;;;5.18;3.00;;;;;;;;;;5053931;28;20183;-75
2021/07/27 16:29:56;;;;;;;3.28;2.95;;;;;;;;;;5053445;28;20206;-75
2021/07/27 16:33:00;;;;;;;4.32;3.20;;;;;;;;;;5041251;28;20221;-75
2021/07/27 16:36:04;;;;;;;3.25;2.92;;;;;;;;;;5041564;28;20652;-75
2021/07/27 16:39:09;;;;;;;3.10;2.80;;;;;;;;;;5053272;28;20625;-75
2021/07/27 16:42:14;;;;;;;4.45;3.00;;;;;;;;;;5053628;28;20214;-75
2021/07/27 16:45:18;;;;;;;3.47;2.95;;;;;;;;;;5053725;28;20178;-75
2021/07/27 16:48:23;;;;;;;6.65;3.15;;;;;;;;;;5053359;28;20187;-75
2021/07/27 16:51:27;;;;;;;5.10;2.83;;;;;;;;;;5041040;28;20511;-75
2021/07/27 16:54:31;;;;;;;3.88;3.33;;;;;;;;;;5041048;28;20177;-75
2021/07/27 16:57:35;;;;;;;4.03;3.10;;;;;;;;;;5053257;28;20179;-75
2021/07/27 17:00:39;;;;;;;4.63;2.95;;;;;;;;;;5041087;28;20172;-75
2021/07/27 17:03:43;;;;;;;4.93;3.10;;;;;;;;;;5029772;28;20214;-75
2021/07/27 17:06:47;;;;;;;5.25;3.03;;;;;;;;;;5053170;28;20183;-75
2021/07/27 17:09:51;;;;;;;6.90;3.38;;;;;;;;;;5053256;28;20204;-75
2021/07/27 17:12:55;;;;;;;4.93;3.28;;;;;;;;;;5052985;28;20222;-75
2021/07/27 17:15:59;;;;;;;6.32;3.20;;;;;;;;;;5053348;28;20539;-75
2021/07/27 17:19:03;;;;;;;5.15;3.38;;;;;;;;;;5053334;28;20182;-74
2021/07/27 17:22:09;;;;;;;4.18;3.33;;;;;;;;;;5053475;28;20221;-75
2021/07/27 17:25:14;;;;;;;3.65;3.13;;;;;;;;;;5053310;28;20623;-75
2021/07/27 17:28:18;;;;;;;4.63;3.30;;;;;;;;;;5040763;28;20182;-75
2021/07/27 17:31:22;;;;;;;5.85;3.20;;;;;;;;;;5052808;28;20551;-75
2021/07/27 17:34:28;;;;;;;3.47;3.03;;;;;;;;;;5053160;28;20513;-75
2021/07/27 17:37:33;;;;;;;4.38;2.95;;;;;;;;;;5052858;28;20197;-75
2021/07/27 17:40:37;;;;;;;4.03;3.08;;;;;;;;;;5052812;28;20195;-75
2021/07/27 17:43:41;;;;;;;6.73;3.23;;;;;;;;;;5052895;28;20229;-75
2021/07/27 17:46:46;;;;;;;5.10;3.28;;;;;;;;;;5053334;28;20517;-75
2021/07/27 17:49:50;;;;;;;3.72;3.10;;;;;;;;;;5055406;28;20571;-75
2021/07/27 17:52:54;;;;;;;4.50;2.87;;;;;;;;;;5056411;28;20221;-75
2021/07/27 17:55:58;;;;;;;3.67;3.03;;;;;;;;;;5044124;28;20176;-75
2021/07/27 17:59:02;;;;;;;4.57;2.93;;;;;;;;;;5044224;28;20184;-75
2021/07/27 18:02:06;;;;;;;3.27;2.97;;;;;;;;;;5057044;28;20532;-75
2021/07/27 18:05:11;;;;;;;4.77;3.30;;;;;;;;;;5056289;28;20194;-74
2021/07/27 18:08:15;;;;;;;3.37;3.00;;;;;;;;;;5056455;28;20181;-74
2021/07/27 18:11:19;;;;;;;5.10;2.90;;;;;;;;;;5056137;28;20213;-75
2021/07/27 18:14:23;;;;;;;3.50;2.87;;;;;;;;;;5044051;28;20519;-75
2021/07/27 18:17:28;;;;;;;3.40;3.10;;;;;;;;;;5044010;28;20207;-75
2021/07/27 18:20:34;;;;;;;7.87;2.80;;;;;;;;;;5056496;28;20187;-74
2021/07/27 18:23:39;;;;;;;4.70;2.80;;;;;;;;;;5056090;28;20690;-74
2021/07/27 18:26:44;;;;;;;4.93;2.80;;;;;;;;;;5056117;28;20657;-75
2021/07/27 18:29:47;;;;;;;5.63;3.10;;;;;;;;;;5055950;28;20215;-75
2021/07/27 18:32:52;;;;;;;3.53;3.10;;;;;;;;;;5044384;28;20225;-74
2021/07/27 18:35:56;;;;;;;5.10;2.93;;;;;;;;;;5056370;28;20181;-74
2021/07/27 18:39:01;;;;;;;5.03;2.77;;;;;;;;;;5056461;28;20508;-74
2021/07/27 18:42:05;;;;;;;3.70;3.03;;;;;;;;;;5044348;28;20208;-74
2021/07/27 18:45:10;;;;;;;3.40;2.73;;;;;;;;;;5056075;28;20181;-74
2021/07/27 18:48:14;;;;;;;4.87;3.30;;;;;;;;;;5056097;28;20184;-75
2021/07/27 18:51:18;;;;;;;3.67;3.37;;;;;;;;;;5043771;28;20548;-74
2021/07/27 18:54:30;;;;;;;4.50;2.90;;;;;;;;;;5044373;28;20188;-74
2021/07/27 18:57:35;;;;;;;5.40;3.17;;;;;;;;;;5056254;28;20634;-75